createdAt,value
2022-11-25T00:00:11.444Z,100363.34
2022-11-25T00:02:45.857Z,100359.34
2022-11-25T00:05:15.431Z,100364.00
2022-11-25T00:07:45.022Z,100364.28
2022-11-25T00:10:14.693Z,100366.97
2022-11-25T00:12:46.759Z,100372.06
2022-11-25T00:15:16.379Z,100367.25
2022-11-25T00:17:45.916Z,100368.72
2022-11-25T00:20:15.680Z,100371.50
2022-11-25T00:22:45.130Z,100363.25
2022-11-25T00:25:14.615Z,100363.88
2022-11-25T00:27:46.620Z,100363.72
2022-11-25T00:30:17.216Z,100360.53
2022-11-25T00:32:46.676Z,100368.16
2022-11-25T00:35:16.182Z,100362.34
2022-11-25T00:37:45.616Z,100358.25
2022-11-25T00:40:16.310Z,100354.63
2022-11-25T00:43:06.684Z,100359.16
2022-11-25T00:45:36.169Z,100357.09
2022-11-25T00:48:05.675Z,100364.25
2022-11-25T00:50:35.145Z,100354.38
2022-11-25T00:53:04.578Z,100360.72
2022-11-25T00:55:54.511Z,100359.81
2022-11-25T00:58:26.618Z,100357.19
2022-11-25T01:00:56.184Z,100360.25
2022-11-25T01:03:25.698Z,100355.66
2022-11-25T01:05:55.159Z,100354.81
2022-11-25T01:08:24.595Z,100349.28
2022-11-25T01:11:01.263Z,100350.00
2022-11-25T01:13:33.335Z,100355.34
2022-11-25T01:16:03.971Z,100344.94
2022-11-25T01:18:33.714Z,100352.28
2022-11-25T01:21:08.663Z,100354.97
2022-11-25T01:23:38.147Z,100360.78
2022-11-25T01:26:08.343Z,100369.31
2022-11-25T01:28:40.336Z,100367.50
2022-11-25T01:31:10.806Z,100367.34
2022-11-25T01:33:40.443Z,100361.72
2022-11-25T01:36:11.504Z,100360.91
2022-11-25T01:38:40.786Z,100362.44
2022-11-25T01:41:11.349Z,100370.06
2022-11-25T01:43:43.678Z,100356.44
2022-11-25T01:46:19.452Z,100360.22
2022-11-25T01:48:51.475Z,100357.44
2022-11-25T01:51:21.988Z,100350.72
2022-11-25T01:53:51.745Z,100349.09
2022-11-25T01:56:21.384Z,100349.81
2022-11-25T01:58:53.575Z,100346.72
2022-11-25T02:01:24.223Z,100353.31
2022-11-25T02:03:54.397Z,100349.41
2022-11-25T02:06:25.518Z,100343.97
2022-11-25T02:08:56.289Z,100345.25
2022-11-25T02:11:26.161Z,100342.81
2022-11-25T02:13:58.430Z,100341.63
2022-11-25T02:16:28.112Z,100350.44
2022-11-25T02:18:57.745Z,100347.00
2022-11-25T02:21:29.051Z,100347.44
2022-11-25T02:24:01.593Z,100350.81
2022-11-25T02:26:33.802Z,100355.91
2022-11-25T02:29:03.429Z,100347.06
2022-11-25T02:31:33.102Z,100342.81
2022-11-25T02:34:02.849Z,100340.81
2022-11-25T02:36:32.323Z,100338.38
2022-11-25T02:39:02.307Z,100335.38
2022-11-25T02:41:35.064Z,100340.34
2022-11-25T02:44:04.506Z,100340.00
2022-11-25T02:46:33.978Z,100342.81
2022-11-25T02:49:11.024Z,100342.81
2022-11-25T02:51:41.532Z,100348.91
2022-11-25T02:54:10.966Z,100339.00
2022-11-25T02:56:43.047Z,100339.63
2022-11-25T02:59:12.725Z,100334.84
2022-11-25T03:01:42.296Z,100335.28
2022-11-25T03:04:12.000Z,100331.09
2022-11-25T03:06:41.591Z,100331.50
2022-11-25T03:09:11.122Z,100331.28
2022-11-25T03:11:55.652Z,100331.75
2022-11-25T03:14:25.108Z,100331.38
2022-11-25T03:16:54.606Z,100326.13
2022-11-25T03:19:24.120Z,100327.28
2022-11-25T03:21:53.614Z,100327.56
2022-11-25T03:24:23.307Z,100323.22
2022-11-25T03:26:55.385Z,100323.22
2022-11-25T03:29:24.868Z,100323.78
2022-11-25T03:31:54.412Z,100327.75
2022-11-25T03:34:23.945Z,100321.78
2022-11-25T03:36:53.471Z,100320.84
2022-11-25T03:39:23.725Z,100320.75
2022-11-25T03:41:55.813Z,100329.94
2022-11-25T03:44:25.290Z,100324.66
2022-11-25T03:46:54.792Z,100321.03
2022-11-25T03:49:24.578Z,100333.00
2022-11-25T03:51:54.015Z,100334.19
2022-11-25T03:54:23.459Z,100338.53
2022-11-25T03:56:55.499Z,100340.53
2022-11-25T03:59:25.113Z,100341.53
2022-11-25T04:01:54.638Z,100339.25
2022-11-25T04:04:24.112Z,100337.44
2022-11-25T04:06:53.537Z,100335.47
2022-11-25T04:09:23.075Z,100339.34
2022-11-25T04:12:07.572Z,100336.19
2022-11-25T04:14:37.345Z,100332.84
2022-11-25T04:17:07.030Z,100328.75
2022-11-25T04:19:36.529Z,100341.56
2022-11-25T04:22:06.071Z,100329.59
2022-11-25T04:24:35.840Z,100337.47
2022-11-25T04:27:08.092Z,100330.22
2022-11-25T04:29:37.554Z,100330.66
2022-11-25T04:32:07.664Z,100339.00
2022-11-25T04:34:37.270Z,100336.19
2022-11-25T04:37:06.866Z,100331.28
2022-11-25T04:39:36.326Z,100324.03
2022-11-25T04:42:33.970Z,100326.53
2022-11-25T04:47:52.994Z,100326.09
2022-11-25T04:50:23.530Z,100323.81
2022-11-25T04:52:52.973Z,100320.84
2022-11-25T04:55:22.456Z,100319.66
2022-11-25T04:57:54.506Z,100320.22
2022-11-25T05:00:21.728Z,100322.69
2022-11-25T05:02:51.295Z,100330.28
2022-11-25T05:05:20.811Z,100325.88
2022-11-25T05:07:50.446Z,100333.06
2022-11-25T05:10:20.143Z,100333.78
2022-11-25T05:12:49.616Z,100334.75
2022-11-25T05:15:21.659Z,100341.63
2022-11-25T05:17:51.105Z,100347.59
2022-11-25T05:20:21.413Z,100347.50
2022-11-25T05:22:50.952Z,100351.03
2022-11-25T05:25:20.935Z,100346.47
2022-11-25T05:27:50.392Z,100347.44
2022-11-25T05:30:22.647Z,100342.13
2022-11-25T05:32:52.114Z,100344.44
2022-11-25T05:35:22.084Z,100346.56
2022-11-25T05:37:51.507Z,100349.81
2022-11-25T05:40:20.986Z,100345.09
2022-11-25T05:42:50.695Z,100342.84
2022-11-25T05:45:22.758Z,100335.13
2022-11-25T05:47:52.215Z,100337.75
2022-11-25T05:50:21.671Z,100340.63
2022-11-25T05:52:51.185Z,100342.28
2022-11-25T05:55:20.639Z,100352.00
2022-11-25T05:57:50.075Z,100358.09
2022-11-25T06:00:26.624Z,100373.06
2022-11-25T06:02:56.589Z,100378.16
2022-11-25T06:05:26.196Z,100368.78
2022-11-25T06:07:55.722Z,100372.03
2022-11-25T06:10:25.298Z,100370.22
2022-11-25T06:12:55.403Z,100374.56
2022-11-25T06:15:27.455Z,100376.19
2022-11-25T06:17:56.881Z,100378.47
2022-11-25T06:20:27.148Z,100378.13
2022-11-25T06:22:56.644Z,100379.31
2022-11-25T06:25:26.136Z,100389.72
2022-11-25T06:28:12.281Z,100385.75
2022-11-25T06:30:45.221Z,100384.22
2022-11-25T06:33:14.952Z,100393.94
2022-11-25T06:35:44.430Z,100392.75
2022-11-25T06:38:13.882Z,100409.34
2022-11-25T06:40:43.340Z,100403.75
2022-11-25T06:43:12.804Z,100401.38
2022-11-25T06:45:44.858Z,100406.84
2022-11-25T06:48:14.332Z,100408.19
2022-11-25T06:50:43.804Z,100406.19
2022-11-25T06:53:13.275Z,100408.91
2022-11-25T06:55:42.702Z,100411.69
2022-11-25T06:58:34.263Z,100416.00
2022-11-25T07:01:09.463Z,100414.09
2022-11-25T07:03:38.968Z,100421.16
2022-11-25T07:06:09.042Z,100416.13
2022-11-25T07:08:38.547Z,100422.03
2022-11-25T07:11:09.035Z,100423.19
2022-11-25T07:13:38.527Z,100415.59
2022-11-25T07:16:11.295Z,100419.31
2022-11-25T07:18:41.389Z,100418.78
2022-11-25T07:21:11.937Z,100425.97
2022-11-25T07:23:41.475Z,100427.25
2022-11-25T07:26:12.096Z,100432.13
2022-11-25T07:28:41.637Z,100435.56
2022-11-25T07:31:27.593Z,100430.16
2022-11-25T07:33:59.396Z,100431.28
2022-11-25T07:36:28.928Z,100433.59
2022-11-25T07:38:58.424Z,100429.09
2022-11-25T07:41:28.681Z,100443.00
2022-11-25T07:43:59.022Z,100437.56
2022-11-25T07:46:31.922Z,100433.13
2022-11-25T07:49:02.326Z,100440.28
2022-11-25T07:51:33.215Z,100445.44
2022-11-25T07:54:03.397Z,100451.81
2022-11-25T07:56:32.986Z,100447.91
2022-11-25T07:59:02.539Z,100450.13
2022-11-25T08:01:34.753Z,100448.88
2022-11-25T08:04:04.307Z,100454.00
2022-11-25T08:06:33.858Z,100452.16
2022-11-25T08:09:03.438Z,100458.97
2022-11-25T08:11:33.694Z,100459.91
2022-11-25T08:14:03.245Z,100468.34
2022-11-25T08:16:35.414Z,100463.00
2022-11-25T08:19:07.156Z,100467.06
2022-11-25T08:21:36.711Z,100468.78
2022-11-25T08:24:06.541Z,100466.63
2022-11-25T08:26:38.402Z,100466.16
2022-11-25T08:29:09.382Z,100468.91
2022-11-25T08:31:42.685Z,100472.44
2022-11-25T08:34:12.365Z,100473.84
2022-11-25T08:36:47.786Z,100469.81
2022-11-25T08:39:44.096Z,100470.25
2022-11-25T08:42:08.054Z,100481.63
2022-11-25T08:44:37.670Z,100482.38
2022-11-25T08:47:10.128Z,100491.28
2022-11-25T08:49:41.549Z,100487.25
2022-11-25T08:52:11.669Z,100485.56
2022-11-25T08:54:41.358Z,100483.44
2022-11-25T08:57:10.827Z,100488.25
2022-11-25T08:59:43.850Z,100499.41
2022-11-25T09:02:18.314Z,100506.16
2022-11-25T09:04:47.861Z,100505.88
2022-11-25T09:07:17.461Z,100505.31
2022-11-25T09:09:46.984Z,100503.78
2022-11-25T09:12:16.479Z,100512.50
2022-11-25T09:14:45.935Z,100512.47
2022-11-25T09:17:18.245Z,100507.69
2022-11-25T09:19:47.710Z,100507.88
2022-11-25T09:22:17.212Z,100516.69
2022-11-25T09:24:46.727Z,100516.31
2022-11-25T09:27:16.215Z,100529.22
2022-11-25T09:29:45.698Z,100527.34
2022-11-25T09:32:17.828Z,100537.97
2022-11-25T09:34:47.307Z,100533.63
2022-11-25T09:37:16.851Z,100540.22
2022-11-25T09:39:46.323Z,100534.91
2022-11-25T09:42:37.977Z,100543.66
2022-11-25T09:45:26.498Z,100544.59
2022-11-25T09:48:03.359Z,100553.91
2022-11-25T09:50:43.585Z,100552.81
2022-11-25T09:53:17.335Z,100549.09
2022-11-25T09:55:48.506Z,100554.06
2022-11-25T09:58:19.976Z,100559.88
2022-11-25T10:00:50.388Z,100559.28
2022-11-25T10:03:29.954Z,100561.13
2022-11-25T10:06:01.872Z,100562.03
2022-11-25T10:08:36.241Z,100567.28
2022-11-25T10:11:06.615Z,100561.16
2022-11-25T10:13:40.004Z,100563.28
2022-11-25T10:16:10.612Z,100566.28
2022-11-25T10:18:45.283Z,100566.13
2022-11-25T10:21:14.809Z,100567.84
2022-11-25T10:23:44.335Z,100563.88
2022-11-25T10:26:16.370Z,100567.88
2022-11-25T10:28:48.314Z,100568.22
2022-11-25T10:31:19.477Z,100559.47
2022-11-25T10:33:52.960Z,100553.28
2022-11-25T10:36:23.658Z,100560.69
2022-11-25T10:38:55.291Z,100569.38
2022-11-25T10:41:26.455Z,100578.47
2022-11-25T10:43:55.678Z,100569.69
2022-11-25T10:46:49.669Z,100573.78
2022-11-25T10:49:23.114Z,100574.25
2022-11-25T10:51:54.709Z,100571.94
2022-11-25T10:54:27.919Z,100561.78
2022-11-25T10:56:59.309Z,100567.09
2022-11-25T10:59:30.869Z,100577.44
2022-11-25T11:02:19.191Z,100565.44
2022-11-25T11:04:59.883Z,100571.38
2022-11-25T11:07:30.265Z,100580.94
2022-11-25T11:10:17.597Z,100587.78
2022-11-25T11:12:54.756Z,100591.59
2022-11-25T11:15:25.404Z,100591.72
2022-11-25T11:17:55.012Z,100590.91
2022-11-25T11:20:27.744Z,100604.25
2022-11-25T11:23:05.540Z,100605.13
2022-11-25T11:25:38.586Z,100614.44
2022-11-25T11:28:27.727Z,100606.88
2022-11-25T11:30:59.804Z,100609.34
2022-11-25T11:33:36.704Z,100611.66
2022-11-25T11:36:21.266Z,100608.31
2022-11-25T11:38:55.453Z,100620.97
2022-11-25T11:41:33.023Z,100628.63
2022-11-25T11:44:18.968Z,100629.50
2022-11-25T11:47:01.901Z,100635.78
2022-11-25T11:49:55.436Z,100627.50
2022-11-25T11:52:31.276Z,100630.34
2022-11-25T11:55:03.434Z,100633.00
2022-11-25T11:57:37.342Z,100627.28
2022-11-25T12:00:07.440Z,100635.19
2022-11-25T12:02:49.650Z,100630.31
2022-11-25T12:05:22.104Z,100622.16
2022-11-25T12:08:00.775Z,100631.06
2022-11-25T12:10:31.516Z,100627.84
2022-11-25T12:13:04.552Z,100640.09
2022-11-25T12:15:39.582Z,100631.69
2022-11-25T12:18:15.037Z,100633.41
2022-11-25T12:20:47.234Z,100637.41
2022-11-25T12:23:25.320Z,100639.81
2022-11-25T12:25:55.658Z,100647.59
2022-11-25T12:28:27.123Z,100642.97
2022-11-25T12:31:04.981Z,100640.38
2022-11-25T12:33:43.919Z,100650.63
2022-11-25T12:36:14.897Z,100651.41
2022-11-25T12:38:49.008Z,100660.78
2022-11-25T12:41:23.313Z,100658.19
2022-11-25T12:43:53.562Z,100652.69
2022-11-25T12:46:27.558Z,100665.41
2022-11-25T12:48:57.326Z,100662.22
2022-11-25T12:51:34.227Z,100660.25
2022-11-25T12:54:13.410Z,100668.09
2022-11-25T12:56:53.533Z,100673.28
2022-11-25T12:59:35.750Z,100676.09
2022-11-25T13:02:18.313Z,100687.03
2022-11-25T13:05:32.886Z,100686.00
2022-11-25T13:07:59.594Z,100694.03
2022-11-25T13:10:37.030Z,100690.81
2022-11-25T13:13:18.507Z,100687.84
2022-11-25T13:15:48.740Z,100698.97
2022-11-25T13:18:20.147Z,100700.25
2022-11-25T13:20:50.466Z,100700.41
2022-11-25T13:23:25.632Z,100714.13
2022-11-25T13:26:32.671Z,100702.31
2022-11-25T13:29:02.384Z,100701.06
2022-11-25T13:31:34.221Z,100708.75
2022-11-25T13:34:12.105Z,100710.78
2022-11-25T13:36:48.992Z,100707.91
2022-11-25T13:39:19.156Z,100715.66
2022-11-25T13:41:52.230Z,100712.19
2022-11-25T13:44:28.189Z,100720.75
2022-11-25T13:46:58.396Z,100730.16
2022-11-25T13:49:41.111Z,100730.94
2022-11-25T13:52:31.143Z,100726.75
2022-11-25T13:55:00.593Z,100729.75
2022-11-25T13:57:34.742Z,100726.16
2022-11-25T14:00:04.889Z,100721.50
2022-11-25T14:02:38.251Z,100728.88
2022-11-25T14:05:37.518Z,100731.56
2022-11-25T14:08:13.804Z,100737.88
2022-11-25T14:10:47.703Z,100739.97
2022-11-25T14:13:29.166Z,100745.28
2022-11-25T14:16:14.639Z,100737.81
2022-11-25T14:19:34.999Z,100737.09
2022-11-25T14:21:56.433Z,100739.22
2022-11-25T14:24:38.901Z,100739.25
2022-11-25T14:27:13.568Z,100737.00
2022-11-25T14:29:48.139Z,100744.16
2022-11-25T14:32:18.633Z,100761.06
2022-11-25T14:34:49.825Z,100757.78
2022-11-25T14:37:20.472Z,100758.22
2022-11-25T14:39:52.171Z,100759.84
2022-11-25T14:42:22.463Z,100763.38
2022-11-25T14:44:56.024Z,100767.00
2022-11-25T14:47:26.198Z,100774.41
2022-11-25T14:52:47.692Z,100779.47
2022-11-25T14:55:17.302Z,100782.16
2022-11-25T14:57:47.308Z,100787.44
2022-11-25T15:00:20.368Z,100786.41
2022-11-25T15:02:57.238Z,100785.75
2022-11-25T15:05:28.477Z,100788.94
2022-11-25T15:08:03.209Z,100798.00
2022-11-25T15:10:43.276Z,100799.75
2022-11-25T15:13:16.008Z,100806.19
2022-11-25T15:15:50.217Z,100804.34
2022-11-25T15:18:21.387Z,100804.13
2022-11-25T15:20:50.847Z,100811.91
2022-11-25T15:23:32.003Z,100820.69
2022-11-25T15:26:01.983Z,100816.59
2022-11-25T15:28:37.081Z,100819.03
2022-11-25T15:31:13.845Z,100820.78
2022-11-25T15:33:43.433Z,100829.31
2022-11-25T15:36:12.982Z,100833.84
2022-11-25T15:38:44.264Z,100832.78
2022-11-25T15:41:20.518Z,100838.31
2022-11-25T15:43:50.672Z,100837.97
2022-11-25T15:46:22.821Z,100846.34
2022-11-25T15:48:52.776Z,100846.88
2022-11-25T15:51:32.378Z,100848.84
2022-11-25T15:54:03.715Z,100854.75
2022-11-25T15:56:33.220Z,100850.63
2022-11-25T15:59:02.727Z,100852.47
2022-11-25T16:01:34.882Z,100857.09
2022-11-25T16:04:18.920Z,100857.25
2022-11-25T16:06:55.908Z,100861.34
2022-11-25T16:09:31.281Z,100867.06
2022-11-25T16:12:07.740Z,100862.03
2022-11-25T16:14:37.792Z,100866.91
2022-11-25T16:17:12.928Z,100866.47
2022-11-25T16:19:43.882Z,100867.19
2022-11-25T16:22:15.151Z,100874.69
2022-11-25T16:24:53.031Z,100874.50
2022-11-25T16:27:26.105Z,100882.00
2022-11-25T16:29:59.907Z,100889.78
2022-11-25T16:32:33.031Z,100897.72
2022-11-25T16:35:05.880Z,100906.84
2022-11-25T16:37:35.403Z,100908.84
2022-11-25T16:40:04.908Z,100905.91
2022-11-25T16:42:34.820Z,100911.88
2022-11-25T16:45:04.294Z,100911.22
2022-11-25T16:47:36.394Z,100918.09
2022-11-25T16:50:14.406Z,100916.47
2022-11-25T16:52:44.231Z,100916.72
2022-11-25T16:55:13.770Z,100924.00
2022-11-25T16:57:43.347Z,100931.50
2022-11-25T17:00:16.904Z,100929.56
2022-11-25T17:02:50.694Z,100934.41
2022-11-25T17:05:21.490Z,100938.81
2022-11-25T17:07:51.323Z,100945.09
2022-11-25T17:10:21.607Z,100947.47
2022-11-25T17:12:51.172Z,100943.38
2022-11-25T17:15:21.553Z,100956.06
2022-11-25T17:17:53.928Z,100956.72
2022-11-25T17:20:26.065Z,100962.25
2022-11-25T17:22:55.745Z,100964.28
2022-11-25T17:25:25.671Z,100969.38
2022-11-25T17:27:55.173Z,100973.38
2022-11-25T17:30:25.916Z,100980.13
2022-11-25T17:33:00.429Z,100989.06
2022-11-25T17:35:29.913Z,100986.88
2022-11-25T17:37:59.547Z,100997.38
2022-11-25T17:40:29.118Z,100984.16
2022-11-25T17:42:58.665Z,100987.53
2022-11-25T17:45:29.533Z,100999.31
2022-11-25T17:48:01.704Z,101003.13
2022-11-25T17:50:31.183Z,101002.28
2022-11-25T17:53:01.290Z,101009.88
2022-11-25T17:55:30.784Z,101004.59
2022-11-25T17:58:00.293Z,101008.94
2022-11-25T18:00:29.961Z,101024.53
2022-11-25T18:03:02.149Z,101021.25
2022-11-25T18:05:31.788Z,101030.19
2022-11-25T18:08:01.364Z,101033.00
2022-11-25T18:10:30.904Z,101041.50
2022-11-25T18:13:00.397Z,101039.81
2022-11-25T18:15:30.907Z,101044.38
2022-11-25T18:18:05.239Z,101055.94
2022-11-25T18:20:34.900Z,101053.53
2022-11-25T18:23:04.374Z,101060.00
2022-11-25T18:25:34.591Z,101060.41
2022-11-25T18:28:04.147Z,101060.63
2022-11-25T18:30:34.532Z,101061.00
2022-11-25T18:33:09.106Z,101079.19
2022-11-25T18:35:38.609Z,101078.72
2022-11-25T18:38:08.275Z,101087.38
2022-11-25T18:40:40.184Z,101085.75
2022-11-25T18:43:10.100Z,101103.25
2022-11-25T18:45:40.397Z,101102.00
2022-11-25T18:48:17.879Z,101112.09
2022-11-25T18:50:47.615Z,101115.91
2022-11-25T18:53:17.203Z,101120.47
2022-11-25T18:55:46.778Z,101133.38
2022-11-25T18:58:18.362Z,101137.50
2022-11-25T19:00:48.591Z,101147.03
2022-11-25T19:03:22.454Z,101153.78
2022-11-25T19:05:52.124Z,101155.91
2022-11-25T19:08:21.631Z,101152.31
2022-11-25T19:10:51.166Z,101167.53
2022-11-25T19:13:22.044Z,101164.91
2022-11-25T19:15:51.551Z,101165.38
2022-11-25T19:18:26.707Z,101160.44
2022-11-25T19:20:56.275Z,101162.47
2022-11-25T19:23:28.808Z,101168.91
2022-11-25T19:26:01.084Z,101164.00
2022-11-25T19:28:30.616Z,101171.38
2022-11-25T19:31:04.464Z,101174.19
2022-11-25T19:33:37.478Z,101175.00
2022-11-25T19:36:07.389Z,101173.69
2022-11-25T19:38:36.843Z,101181.63
2022-11-25T19:41:06.306Z,101186.91
2022-11-25T19:43:35.786Z,101182.47
2022-11-25T19:46:05.734Z,101180.63
2022-11-25T19:48:39.134Z,101187.22
2022-11-25T19:51:08.792Z,101196.31
2022-11-25T19:53:38.256Z,101201.06
2022-11-25T19:56:08.922Z,101208.00
2022-11-25T19:58:38.343Z,101212.47
2022-11-25T20:01:08.165Z,101213.94
2022-11-25T20:03:45.069Z,101220.88
2022-11-25T20:06:17.808Z,101234.88
2022-11-25T20:08:47.320Z,101236.22
2022-11-25T20:11:17.304Z,101240.66
2022-11-25T20:13:46.966Z,101244.13
2022-11-25T20:16:18.219Z,101243.47
2022-11-25T20:18:50.263Z,101245.13
2022-11-25T20:21:22.465Z,101253.34
2022-11-25T20:23:51.896Z,101257.31
2022-11-25T20:26:22.811Z,101252.88
2022-11-25T20:28:52.275Z,101266.06
2022-11-25T20:31:22.170Z,101258.97
2022-11-25T20:33:54.888Z,101258.34
2022-11-25T20:36:25.829Z,101280.25
2022-11-25T20:38:58.864Z,101277.28
2022-11-25T20:41:28.354Z,101279.44
2022-11-25T20:43:58.086Z,101278.59
2022-11-25T20:46:29.469Z,101277.44
2022-11-25T20:49:02.292Z,101271.19
2022-11-25T20:51:31.866Z,101270.84
2022-11-25T20:54:03.326Z,101280.75
2022-11-25T20:56:33.021Z,101281.25
2022-11-25T20:59:02.448Z,101283.91
2022-11-25T21:01:31.908Z,101292.63
2022-11-25T21:04:03.946Z,101302.69
2022-11-25T21:06:36.574Z,101305.31
2022-11-25T21:09:13.419Z,101309.44
2022-11-25T21:11:42.879Z,101304.66
2022-11-25T21:14:13.806Z,101307.94
2022-11-25T21:16:43.283Z,101315.53
2022-11-25T21:19:15.409Z,101320.16
2022-11-25T21:21:45.786Z,101321.28
2022-11-25T21:24:21.317Z,101324.44
2022-11-25T21:26:50.871Z,101325.25
2022-11-25T21:29:20.335Z,101332.78
2022-11-25T21:31:49.847Z,101333.91
2022-11-25T21:34:22.009Z,101330.63
2022-11-25T21:36:52.865Z,101341.13
2022-11-25T21:39:30.039Z,101342.13
2022-11-25T21:42:00.836Z,101340.66
2022-11-25T21:44:33.160Z,101344.56
2022-11-25T21:47:02.935Z,101343.91
2022-11-25T21:49:34.994Z,101346.06
2022-11-25T21:52:04.451Z,101352.56
2022-11-25T21:54:33.902Z,101357.03
2022-11-25T21:57:03.402Z,101361.97
2022-11-25T21:59:32.852Z,101366.03
2022-11-25T22:02:02.315Z,101368.16
2022-11-25T22:04:31.747Z,101368.81
2022-11-25T22:07:03.819Z,101375.59
2022-11-25T22:09:33.275Z,101367.97
2022-11-25T22:12:02.775Z,101380.19
2022-11-25T22:14:34.755Z,101382.78
2022-11-25T22:17:04.491Z,101388.53
2022-11-25T22:19:33.988Z,101397.63
2022-11-25T22:22:06.025Z,101397.56
2022-11-25T22:24:35.653Z,101407.44
2022-11-25T22:27:07.213Z,101409.38
2022-11-25T22:29:37.518Z,101419.28
2022-11-25T22:32:12.418Z,101414.50
2022-11-25T22:34:42.221Z,101412.19
2022-11-25T22:37:17.762Z,101422.53
2022-11-25T22:39:47.300Z,101418.41
2022-11-25T22:42:28.012Z,101416.63
2022-11-25T22:44:57.769Z,101427.00
2022-11-25T22:47:29.669Z,101432.09
2022-11-25T22:49:59.160Z,101435.69
2022-11-25T22:52:32.802Z,101435.53
2022-11-25T22:55:02.383Z,101437.63
2022-11-25T22:57:32.147Z,101429.56
2022-11-25T23:00:01.875Z,101437.63
2022-11-25T23:02:34.750Z,101446.13
2022-11-25T23:05:04.424Z,101444.47
2022-11-25T23:07:36.519Z,101447.25
2022-11-25T23:10:08.853Z,101455.50
2022-11-25T23:12:38.340Z,101453.00
2022-11-25T23:15:08.980Z,101469.25
2022-11-25T23:17:38.432Z,101463.00
2022-11-25T23:20:15.575Z,101476.03
2022-11-25T23:22:47.628Z,101476.31
2022-11-25T23:25:18.641Z,101472.19
2022-11-25T23:27:48.110Z,101467.81
2022-11-25T23:30:18.544Z,101470.69
2022-11-25T23:32:48.260Z,101475.06
2022-11-25T23:35:18.712Z,101480.69
2022-11-25T23:37:56.430Z,101467.69
2022-11-25T23:40:26.906Z,101473.09
2022-11-25T23:42:56.496Z,101479.84
2022-11-25T23:45:27.320Z,101488.59
2022-11-25T23:47:57.743Z,101479.84
2022-11-25T23:50:30.577Z,101489.25
2022-11-25T23:53:04.326Z,101487.59
2022-11-25T23:55:35.063Z,101494.22
2022-11-25T23:58:05.054Z,101491.50
